Time;durP1;ratioP1;P1;durP2;ratioP2;P2;SDS_P1;SDS_P2;PMS_P1;PMS_P2;Temp;Humidity;BMP_temperature;BMP_pressure;BME280_temperature;BME280_humidity;BME280_pressure;Samples;Min_cycle;Max_cycle;Signal;HPM_P1;HPM_P2
2023/12/14 00:01:28;;;;;;;15.63;6.78;;;7.30;99.90;;;;;;5000691;28;20030;-74
2023/12/14 00:03:54;;;;;;;15.60;6.50;;;7.30;99.90;;;;;;5001633;28;20494;-74
2023/12/14 00:06:20;;;;;;;11.10;5.82;;;7.30;99.90;;;;;;5004334;28;20081;-75
2023/12/14 00:08:46;;;;;;;20.55;7.07;;;7.40;99.90;;;;;;5005406;28;20518;-74
2023/12/14 00:11:11;;;;;;;13.05;6.13;;;7.40;99.90;;;;;;5003039;28;20088;-74
2023/12/14 00:13:38;;;;;;;15.57;6.53;;;7.30;99.90;;;;;;5006335;28;20042;-74
2023/12/14 00:16:05;;;;;;;12.57;6.50;;;7.30;99.90;;;;;;5001803;28;20064;-74
2023/12/14 00:18:31;;;;;;;22.25;7.53;;;7.20;99.90;;;;;;5017162;28;20344;-76
2023/12/14 00:20:56;;;;;;;11.30;5.78;;;7.20;99.90;;;;;;5006404;28;20022;-74
2023/12/14 00:23:25;;;;;;;13.93;6.43;;;7.20;99.90;;;;;;5009069;28;20041;-74
2023/12/14 00:25:56;;;;;;;13.75;6.78;;;7.20;99.90;;;;;;4990968;28;20033;-74
2023/12/14 00:28:22;;;;;;;14.57;6.87;;;7.10;99.90;;;;;;4990744;28;20037;-74
2023/12/14 00:30:48;;;;;;;13.57;7.13;;;7.00;99.90;;;;;;4986382;28;20100;-75
2023/12/14 00:33:14;;;;;;;11.63;6.13;;;7.00;99.90;;;;;;5008796;28;20033;-74
2023/12/14 00:35:40;;;;;;;12.98;6.28;;;7.00;99.90;;;;;;5005912;28;20125;-74
2023/12/14 00:38:05;;;;;;;10.32;5.18;;;7.00;99.90;;;;;;5003945;28;20140;-75
2023/12/14 00:40:31;;;;;;;17.55;7.88;;;6.90;99.90;;;;;;4988045;28;20032;-75
2023/12/14 00:42:57;;;;;;;11.32;6.38;;;6.90;99.90;;;;;;4992547;28;20080;-75
2023/12/14 00:45:22;;;;;;;13.45;6.80;;;6.90;99.90;;;;;;5004732;28;20030;-75
2023/12/14 00:47:48;;;;;;;8.52;4.95;;;6.90;99.90;;;;;;5006498;28;20032;-76
2023/12/14 00:50:14;;;;;;;13.45;6.43;;;6.70;99.90;;;;;;4989407;28;20084;-75
2023/12/14 00:52:39;;;;;;;12.07;6.90;;;6.70;99.90;;;;;;4980707;28;20044;-75
2023/12/14 00:55:06;;;;;;;10.38;5.82;;;6.70;99.90;;;;;;4992588;28;20034;-75
2023/12/14 00:57:31;;;;;;;10.18;5.20;;;6.70;99.90;;;;;;5003535;28;20044;-75
2023/12/14 00:59:57;;;;;;;10.70;5.60;;;6.70;99.90;;;;;;5008685;28;20033;-75
2023/12/14 01:02:23;;;;;;;11.85;5.82;;;6.80;99.90;;;;;;4999838;28;20123;-75
2023/12/14 01:04:49;;;;;;;11.65;5.88;;;6.80;99.90;;;;;;5004740;28;20379;-75
2023/12/14 01:07:14;;;;;;;13.07;6.38;;;6.70;99.90;;;;;;5005037;28;20065;-75
2023/12/14 01:09:40;;;;;;;12.88;6.88;;;6.80;99.90;;;;;;5006372;28;20386;-75
2023/12/14 01:12:06;;;;;;;11.10;5.50;;;6.80;99.90;;;;;;4990483;28;20026;-74
2023/12/14 01:14:32;;;;;;;9.70;5.30;;;6.80;99.90;;;;;;5002956;28;20042;-74
2023/12/14 01:16:58;;;;;;;10.02;5.85;;;6.80;99.90;;;;;;5005788;28;20123;-74
2023/12/14 01:19:25;;;;;;;14.32;5.50;;;6.80;99.90;;;;;;5003611;28;20036;-75
2023/12/14 01:21:51;;;;;;;8.70;4.93;;;6.80;99.90;;;;;;5005187;28;20042;-74
2023/12/14 01:24:17;;;;;;;10.23;6.25;;;6.70;99.90;;;;;;5006042;28;20030;-74
2023/12/14 01:26:43;;;;;;;12.25;5.72;;;6.80;99.90;;;;;;5010804;28;20509;-75
2023/12/14 01:29:08;;;;;;;12.77;6.88;;;6.70;99.90;;;;;;5001529;28;20029;-74
2023/12/14 01:31:34;;;;;;;9.27;5.25;;;6.70;99.90;;;;;;5007084;28;20049;-75
2023/12/14 01:34:00;;;;;;;11.85;6.07;;;6.70;99.90;;;;;;4999139;28;20037;-75
2023/12/14 01:36:26;;;;;;;12.05;5.80;;;6.70;99.90;;;;;;5003396;28;20030;-74
2023/12/14 01:38:52;;;;;;;10.07;5.05;;;6.60;99.90;;;;;;5002912;28;20052;-74
2023/12/14 01:41:18;;;;;;;12.75;6.10;;;6.60;99.90;;;;;;4999986;28;20164;-75
2023/12/14 01:43:44;;;;;;;12.85;6.20;;;6.70;99.90;;;;;;5002443;28;20865;-74
2023/12/14 01:46:11;;;;;;;8.15;4.93;;;6.70;99.90;;;;;;4988919;28;20038;-74
2023/12/14 01:48:37;;;;;;;18.38;6.82;;;6.70;99.90;;;;;;5005255;28;20513;-75
2023/12/14 01:51:03;;;;;;;11.15;6.20;;;6.70;99.90;;;;;;5007660;28;20029;-74
2023/12/14 01:53:29;;;;;;;9.13;4.75;;;6.70;99.90;;;;;;5002812;28;20033;-74
2023/12/14 01:55:54;;;;;;;14.07;6.38;;;6.70;99.90;;;;;;5006706;28;20030;-75
2023/12/14 01:58:21;;;;;;;12.93;7.00;;;6.70;99.90;;;;;;5003193;28;20457;-75
2023/12/14 02:01:03;;;;;;;15.35;6.50;;;6.60;99.90;;;;;;4985638;28;20458;-75
2023/12/14 02:03:29;;;;;;;9.70;5.22;;;6.60;99.90;;;;;;5006808;28;20077;-75
2023/12/14 02:05:55;;;;;;;13.57;6.35;;;6.60;99.90;;;;;;4995459;28;20061;-74
2023/12/14 02:08:21;;;;;;;11.82;6.32;;;6.60;99.90;;;;;;5001320;28;20091;-75
2023/12/14 02:10:48;;;;;;;12.35;7.63;;;6.70;99.90;;;;;;5001022;28;20450;-75
2023/12/14 02:13:13;;;;;;;15.10;5.82;;;6.70;99.90;;;;;;5002352;28;20017;-74
2023/12/14 02:15:39;;;;;;;13.90;5.95;;;6.70;99.90;;;;;;5003459;28;20684;-74
2023/12/14 02:18:05;;;;;;;8.07;6.00;;;6.70;99.90;;;;;;4987065;28;20382;-74
2023/12/14 02:20:30;;;;;;;9.85;4.88;;;6.80;99.90;;;;;;4997224;28;20025;-75
2023/12/14 02:22:57;;;;;;;12.13;5.70;;;6.70;99.90;;;;;;5005523;28;20046;-75
2023/12/14 02:25:24;;;;;;;8.32;5.22;;;6.70;99.90;;;;;;5001440;28;20438;-75
2023/12/14 02:27:54;;;;;;;18.02;6.38;;;6.70;99.90;;;;;;5002116;28;20100;-75
2023/12/14 02:30:19;;;;;;;12.00;6.95;;;6.70;99.90;;;;;;5002177;28;20026;-75
2023/12/14 02:32:45;;;;;;;13.00;6.78;;;6.80;99.90;;;;;;5002433;28;20541;-74
2023/12/14 02:35:11;;;;;;;7.97;5.05;;;6.80;99.90;;;;;;5003316;28;20045;-74
2023/12/14 02:37:37;;;;;;;11.50;6.15;;;6.80;99.90;;;;;;5001643;28;20037;-74
2023/12/14 02:40:04;;;;;;;12.93;6.05;;;6.80;99.90;;;;;;5007425;28;20105;-74
2023/12/14 02:42:30;;;;;;;12.80;5.38;;;6.80;99.90;;;;;;5005029;28;20034;-74
2023/12/14 02:44:56;;;;;;;12.32;6.65;;;6.90;99.90;;;;;;4996396;28;20041;-74
2023/12/14 02:47:22;;;;;;;11.60;5.85;;;6.90;99.90;;;;;;4998220;28;20087;-75
2023/12/14 02:49:48;;;;;;;12.85;6.50;;;6.90;99.90;;;;;;4999486;28;20062;-74
2023/12/14 02:52:14;;;;;;;11.63;6.05;;;6.90;99.90;;;;;;5001627;28;20061;-75
2023/12/14 02:54:41;;;;;;;10.77;6.72;;;6.90;99.90;;;;;;4999558;28;20130;-75
2023/12/14 02:57:07;;;;;;;10.40;6.05;;;6.90;99.90;;;;;;5006591;28;20370;-75
2023/12/14 02:59:32;;;;;;;12.40;6.45;;;6.90;99.90;;;;;;4990058;28;20045;-74
2023/12/14 03:01:58;;;;;;;13.48;6.47;;;7.00;99.90;;;;;;5001527;28;20021;-75
2023/12/14 03:04:24;;;;;;;11.55;5.40;;;7.00;99.90;;;;;;5005119;28;20026;-76
2023/12/14 03:06:50;;;;;;;12.82;6.30;;;7.00;99.90;;;;;;5007244;28;20561;-74
2023/12/14 03:09:16;;;;;;;13.30;6.18;;;7.00;99.90;;;;;;5001407;28;20037;-75
2023/12/14 03:11:41;;;;;;;13.13;6.68;;;7.00;99.90;;;;;;5001879;28;20597;-75
2023/12/14 03:14:07;;;;;;;9.98;5.63;;;6.90;99.90;;;;;;4999294;28;20105;-74
2023/12/14 03:16:35;;;;;;;10.63;5.47;;;6.90;99.90;;;;;;5003010;28;20371;-75
2023/12/14 03:19:01;;;;;;;8.73;5.07;;;6.90;99.90;;;;;;5017197;28;20375;-75
2023/12/14 03:21:27;;;;;;;9.25;5.72;;;6.80;99.90;;;;;;5001087;28;20545;-75
2023/12/14 03:23:53;;;;;;;8.52;5.20;;;6.90;99.90;;;;;;5002301;28;20038;-75
2023/12/14 03:26:18;;;;;;;11.90;5.95;;;7.00;99.90;;;;;;5002244;28;20073;-75
2023/12/14 03:28:44;;;;;;;9.02;5.13;;;7.00;99.90;;;;;;5003070;28;20045;-75
2023/12/14 03:31:13;;;;;;;10.60;5.85;;;7.00;99.90;;;;;;5001120;28;20419;-75
2023/12/14 03:33:40;;;;;;;10.32;5.75;;;7.10;99.90;;;;;;4999458;28;20092;-73
2023/12/14 03:36:06;;;;;;;13.20;6.63;;;7.10;99.90;;;;;;5002273;28;20066;-74
2023/12/14 03:38:33;;;;;;;10.05;6.38;;;7.10;99.90;;;;;;4987940;28;20026;-74
2023/12/14 03:40:59;;;;;;;8.65;5.78;;;7.00;99.90;;;;;;4997772;28;20157;-73
2023/12/14 03:43:25;;;;;;;12.20;6.10;;;7.00;99.90;;;;;;4988743;28;20053;-73
2023/12/14 03:45:50;;;;;;;10.15;6.00;;;7.00;99.90;;;;;;4983422;28;20038;-73
2023/12/14 03:48:16;;;;;;;12.20;5.13;;;7.00;99.90;;;;;;5004226;28;20046;-74
2023/12/14 03:50:42;;;;;;;15.38;7.57;;;7.10;99.90;;;;;;5002351;28;20030;-74
2023/12/14 03:53:08;;;;;;;10.93;5.90;;;7.00;99.90;;;;;;5006835;28;20029;-73
2023/12/14 03:55:34;;;;;;;11.55;5.63;;;7.00;99.90;;;;;;4998512;28;20113;-74
2023/12/14 03:57:59;;;;;;;12.23;6.18;;;7.10;99.90;;;;;;5005074;28;20520;-74
2023/12/14 04:00:25;;;;;;;14.40;7.03;;;7.00;99.90;;;;;;4995756;28;20033;-73
2023/12/14 04:02:51;;;;;;;10.50;5.72;;;7.10;99.90;;;;;;5001228;28;20061;-74
2023/12/14 04:05:17;;;;;;;10.75;5.43;;;7.10;99.90;;;;;;5003820;28;20061;-74
2023/12/14 04:07:43;;;;;;;12.02;5.10;;;7.10;99.90;;;;;;4997969;28;20161;-74
2023/12/14 04:10:13;;;;;;;11.13;6.40;;;7.00;99.90;;;;;;4989121;28;20029;-75
2023/12/14 04:12:40;;;;;;;12.07;6.43;;;6.90;99.90;;;;;;5004510;28;20142;-74
2023/12/14 04:15:07;;;;;;;11.65;5.88;;;6.90;99.90;;;;;;4998400;28;20124;-74
2023/12/14 04:17:33;;;;;;;10.90;6.35;;;6.90;99.90;;;;;;4988392;28;20089;-74
2023/12/14 04:20:00;;;;;;;10.82;5.63;;;6.90;99.90;;;;;;5006556;28;20486;-74
2023/12/14 04:22:26;;;;;;;11.10;6.53;;;6.80;99.90;;;;;;4999206;28;20113;-74
2023/12/14 04:24:52;;;;;;;13.50;6.13;;;6.80;99.90;;;;;;4999677;28;20030;-74
2023/12/14 04:27:18;;;;;;;12.45;5.65;;;6.80;99.90;;;;;;5001344;28;20037;-74
2023/12/14 04:29:44;;;;;;;16.92;7.22;;;6.80;99.90;;;;;;5000315;28;20026;-74
2023/12/14 04:32:11;;;;;;;9.50;5.53;;;6.80;99.90;;;;;;4985980;28;20034;-74
2023/12/14 04:34:37;;;;;;;13.80;7.57;;;6.90;99.90;;;;;;4988311;28;20161;-77
2023/12/14 04:37:03;;;;;;;14.20;6.43;;;6.90;99.90;;;;;;4990754;28;20495;-73
2023/12/14 04:39:28;;;;;;;16.13;6.07;;;6.90;99.90;;;;;;4996747;28;20088;-74
2023/12/14 04:41:54;;;;;;;10.70;5.30;;;6.90;99.90;;;;;;4999058;28;20553;-74
2023/12/14 04:44:21;;;;;;;12.90;6.30;;;7.00;99.90;;;;;;4984420;28;20069;-74
2023/12/14 04:46:48;;;;;;;9.32;4.95;;;7.00;99.90;;;;;;4997514;28;20030;-74
2023/12/14 04:49:14;;;;;;;11.77;6.57;;;7.00;99.90;;;;;;4998935;28;20025;-73
2023/12/14 04:51:40;;;;;;;16.20;5.82;;;7.10;99.90;;;;;;4998568;28;20037;-74
2023/12/14 04:54:06;;;;;;;14.57;6.35;;;7.00;99.90;;;;;;5020967;28;20399;-74
2023/12/14 04:56:31;;;;;;;10.05;6.03;;;7.00;99.90;;;;;;5003318;28;20044;-74
2023/12/14 04:58:58;;;;;;;10.00;4.57;;;6.90;99.90;;;;;;5001827;28;20037;-74
2023/12/14 05:01:26;;;;;;;9.63;5.32;;;6.90;99.90;;;;;;4995693;28;20025;-74
2023/12/14 05:03:53;;;;;;;8.70;4.53;;;7.00;99.90;;;;;;5006062;28;20034;-75
2023/12/14 05:06:19;;;;;;;8.63;5.18;;;6.90;99.90;;;;;;4997944;28;20635;-75
2023/12/14 05:08:45;;;;;;;10.15;5.75;;;6.90;99.90;;;;;;4998871;28;20057;-74
2023/12/14 05:11:12;;;;;;;11.82;6.05;;;6.90;99.90;;;;;;5005326;28;20034;-74
2023/12/14 05:13:38;;;;;;;8.85;5.47;;;6.80;99.90;;;;;;5004697;28;20037;-74
2023/12/14 05:16:04;;;;;;;9.40;5.63;;;6.90;99.90;;;;;;5004207;28;20038;-76
2023/12/14 05:18:30;;;;;;;10.98;5.60;;;6.90;99.90;;;;;;5003652;28;20029;-77
2023/12/14 05:20:56;;;;;;;8.88;4.97;;;6.90;99.90;;;;;;5005890;28;20592;-74
2023/12/14 05:23:21;;;;;;;9.70;5.28;;;6.90;99.90;;;;;;5004672;28;20037;-73
2023/12/14 05:25:47;;;;;;;10.27;6.68;;;6.90;99.90;;;;;;5001663;28;20042;-73
2023/12/14 05:28:13;;;;;;;12.98;5.80;;;6.90;99.90;;;;;;5007677;28;20025;-70
2023/12/14 05:30:42;;;;;;;55.88;24.73;;;7.00;99.90;;;;;;5003827;28;20030;-72
2023/12/14 05:33:08;;;;;;;12.27;7.40;;;7.10;99.90;;;;;;5004551;28;20474;-73
2023/12/14 05:35:42;;;;;;;13.38;7.22;;;7.30;99.90;;;;;;5005802;28;20034;-72
2023/12/14 05:38:19;;;;;;;62.30;30.00;;;7.40;99.90;;;;;;5002173;28;20034;-73
2023/12/14 05:40:52;;;;;;;18.48;9.15;;;7.50;99.90;;;;;;5005028;28;20037;-72
2023/12/14 05:43:18;;;;;;;20.73;9.43;;;7.90;99.90;;;;;;5005844;28;20045;-71
2023/12/14 05:45:44;;;;;;;126.45;61.15;;;7.70;99.90;;;;;;5011826;28;20042;-70
2023/12/14 05:48:09;;;;;;;59.63;30.77;;;7.80;99.90;;;;;;5008846;28;20362;-73
2023/12/14 05:50:35;;;;;;;95.85;47.05;;;7.60;99.90;;;;;;5012413;28;20532;-72
2023/12/14 05:53:01;;;;;;;17.50;9.10;;;7.50;99.90;;;;;;5012891;28;20030;-72
2023/12/14 05:55:27;;;;;;;18.48;7.60;;;7.50;99.90;;;;;;5011679;28;20044;-72
2023/12/14 05:57:54;;;;;;;19.83;9.82;;;7.50;99.90;;;;;;5004242;28;20041;-71
2023/12/14 06:00:20;;;;;;;29.63;9.05;;;7.30;99.90;;;;;;5010701;28;20032;-74
2023/12/14 06:02:46;;;;;;;13.23;7.63;;;7.30;99.90;;;;;;5013271;28;20385;-72
2023/12/14 06:05:12;;;;;;;13.27;7.53;;;7.30;99.90;;;;;;5009296;28;20030;-73
2023/12/14 06:07:38;;;;;;;13.70;7.20;;;7.20;99.90;;;;;;5009578;28;20133;-72
2023/12/14 06:10:04;;;;;;;18.73;6.50;;;7.30;99.90;;;;;;5012040;28;20026;-73
2023/12/14 06:12:30;;;;;;;23.23;10.30;;;7.20;99.90;;;;;;5008166;28;20032;-73
2023/12/14 06:14:56;;;;;;;28.08;13.55;;;7.20;99.90;;;;;;5012176;28;20072;-73
2023/12/14 06:17:22;;;;;;;25.58;10.52;;;7.20;99.90;;;;;;5009550;28;20112;-73
2023/12/14 06:19:47;;;;;;;11.75;5.82;;;7.30;99.90;;;;;;5009392;28;20041;-72
2023/12/14 06:22:13;;;;;;;11.25;6.03;;;7.20;99.90;;;;;;5010921;28;20041;-71
2023/12/14 06:24:39;;;;;;;13.27;6.93;;;7.20;99.90;;;;;;5011802;28;20026;-72
2023/12/14 06:27:05;;;;;;;10.27;5.22;;;7.10;99.90;;;;;;5011039;28;20030;-73
2023/12/14 06:29:31;;;;;;;11.23;5.32;;;7.20;99.90;;;;;;5010649;28;20406;-73
2023/12/14 06:31:56;;;;;;;9.48;5.55;;;7.10;99.90;;;;;;5004071;28;20364;-74
2023/12/14 06:34:22;;;;;;;11.77;6.10;;;7.20;99.90;;;;;;5007219;28;20033;-74
2023/12/14 06:36:48;;;;;;;12.32;6.25;;;7.20;99.90;;;;;;5012671;28;20502;-74
2023/12/14 06:39:14;;;;;;;13.05;6.00;;;7.30;99.90;;;;;;5009788;28;20033;-75
2023/12/14 06:41:40;;;;;;;16.83;6.55;;;7.30;99.90;;;;;;5007772;28;20042;-73
2023/12/14 06:44:05;;;;;;;10.05;5.20;;;7.20;99.90;;;;;;5004553;28;20041;-75
2023/12/14 06:46:31;;;;;;;10.52;5.68;;;7.10;99.90;;;;;;5022087;28;20121;-75
2023/12/14 06:48:57;;;;;;;19.13;6.43;;;7.10;99.90;;;;;;5005372;28;20097;-75
2023/12/14 06:51:23;;;;;;;9.55;4.68;;;7.00;99.90;;;;;;5010248;28;20478;-75
2023/12/14 06:53:48;;;;;;;8.77;4.75;;;7.00;99.90;;;;;;5010778;28;20041;-75
2023/12/14 06:56:15;;;;;;;9.77;5.05;;;6.90;99.90;;;;;;5011287;28;20030;-74
2023/12/14 06:58:43;;;;;;;14.68;6.13;;;6.90;99.90;;;;;;5009587;28;20050;-73
2023/12/14 07:01:17;;;;;;;9.55;5.72;;;6.90;99.90;;;;;;5011342;28;20030;-74
2023/12/14 07:03:44;;;;;;;14.73;7.05;;;6.80;99.90;;;;;;5006854;28;20033;-73
2023/12/14 07:06:18;;;;;;;14.82;6.68;;;6.90;99.90;;;;;;5010863;28;20135;-59
2023/12/14 07:08:44;;;;;;;12.73;5.15;;;6.90;99.90;;;;;;5009307;28;20030;-72
2023/12/14 07:11:11;;;;;;;12.02;5.20;;;7.00;99.90;;;;;;5010322;28;20030;-73
2023/12/14 07:13:38;;;;;;;13.25;5.07;;;7.00;99.90;;;;;;5011125;28;20038;-73
2023/12/14 07:16:09;;;;;;;13.48;6.72;;;7.00;99.90;;;;;;5009023;28;20037;-53
2023/12/14 07:18:40;;;;;;;16.85;7.22;;;7.00;99.90;;;;;;5000533;28;20073;-53
2023/12/14 07:21:07;;;;;;;12.65;5.43;;;7.00;99.90;;;;;;5000099;28;20035;-57
2023/12/14 07:23:35;;;;;;;19.00;7.90;;;7.00;99.90;;;;;;5006723;28;20120;-55
2023/12/14 07:26:01;;;;;;;14.15;6.13;;;6.90;99.90;;;;;;5003594;28;20039;-52
2023/12/14 07:28:27;;;;;;;12.98;5.95;;;6.90;99.90;;;;;;5002309;28;20029;-57
2023/12/14 07:30:53;;;;;;;17.77;7.65;;;6.90;99.90;;;;;;4999731;28;20391;-54
2023/12/14 07:33:19;;;;;;;14.02;7.30;;;7.00;99.90;;;;;;4995626;28;20034;-73
2023/12/14 07:35:45;;;;;;;13.52;6.82;;;7.10;99.90;;;;;;5009818;28;20490;-72
2023/12/14 07:38:11;;;;;;;14.52;6.57;;;7.20;99.90;;;;;;5005244;28;20117;-72
2023/12/14 07:40:38;;;;;;;12.80;7.32;;;7.20;99.90;;;;;;5005652;28;20037;-73
2023/12/14 07:43:04;;;;;;;9.50;5.22;;;7.30;99.90;;;;;;5008730;28;20030;-73
2023/12/14 07:45:30;;;;;;;15.98;5.03;;;7.30;99.90;;;;;;5009079;28;20044;-73
2023/12/14 07:47:56;;;;;;;14.45;6.75;;;7.10;99.90;;;;;;5002863;28;20117;-73
2023/12/14 07:50:22;;;;;;;10.35;5.15;;;7.20;99.90;;;;;;4998919;28;20686;-73
2023/12/14 07:52:48;;;;;;;17.60;6.57;;;7.20;99.90;;;;;;5007147;28;20450;-74
2023/12/14 07:55:13;;;;;;;20.70;8.55;;;7.20;99.90;;;;;;5003957;28;20033;-75
2023/12/14 07:57:40;;;;;;;12.75;6.47;;;7.30;99.90;;;;;;5007231;28;20034;-73
2023/12/14 08:00:08;;;;;;;18.27;6.68;;;7.30;99.90;;;;;;5006427;28;20034;-73
2023/12/14 08:02:34;;;;;;;18.17;7.93;;;7.30;99.90;;;;;;5009847;28;20033;-72
2023/12/14 08:05:00;;;;;;;12.05;6.20;;;7.40;99.90;;;;;;5008810;28;20037;-71
2023/12/14 08:07:28;;;;;;;12.77;6.72;;;7.40;99.90;;;;;;5009462;28;20025;-72
2023/12/14 08:09:55;;;;;;;11.40;6.00;;;7.30;99.90;;;;;;4992313;28;20112;-72
2023/12/14 08:12:22;;;;;;;13.75;6.70;;;7.40;99.90;;;;;;5025780;28;20040;-72
2023/12/14 08:14:48;;;;;;;12.27;7.10;;;7.40;99.90;;;;;;5008606;28;20540;-72
2023/12/14 08:17:14;;;;;;;13.88;6.97;;;7.30;99.90;;;;;;5009282;28;20034;-71
2023/12/14 08:19:40;;;;;;;13.75;6.97;;;7.40;99.90;;;;;;5009151;28;20042;-72
2023/12/14 08:22:07;;;;;;;14.35;7.15;;;7.30;99.90;;;;;;5006088;28;20026;-70
2023/12/14 08:24:33;;;;;;;16.38;6.97;;;7.40;99.90;;;;;;5002623;28;20034;-70
2023/12/14 08:26:59;;;;;;;17.45;8.65;;;7.40;99.90;;;;;;5011274;28;20030;-70
2023/12/14 08:29:25;;;;;;;16.75;8.20;;;7.40;99.90;;;;;;5004323;28;20049;-70
2023/12/14 08:31:50;;;;;;;16.40;7.25;;;7.50;99.90;;;;;;5022428;28;20172;-69
2023/12/14 08:34:16;;;;;;;12.40;6.40;;;7.50;99.90;;;;;;5000117;28;20122;-70
2023/12/14 08:36:42;;;;;;;14.07;6.85;;;7.50;99.90;;;;;;5001592;28;20375;-69
2023/12/14 08:39:07;;;;;;;14.98;7.75;;;7.50;99.90;;;;;;5010618;28;20038;-72
2023/12/14 08:41:33;;;;;;;14.93;6.07;;;7.50;99.90;;;;;;5007594;28;20090;-71
2023/12/14 08:43:59;;;;;;;10.65;5.00;;;7.50;99.90;;;;;;5001212;28;20062;-71
2023/12/14 08:46:25;;;;;;;7.88;5.70;;;7.50;99.90;;;;;;5006935;28;20775;-71
2023/12/14 08:48:51;;;;;;;14.43;7.20;;;7.50;99.90;;;;;;5010536;28;20048;-71
2023/12/14 08:51:18;;;;;;;20.85;8.18;;;7.60;99.90;;;;;;5004889;28;20058;-71
2023/12/14 08:53:44;;;;;;;19.83;8.70;;;7.60;99.90;;;;;;5007416;28;20505;-71
2023/12/14 08:56:10;;;;;;;16.52;7.72;;;7.50;99.90;;;;;;5003537;28;20030;-72
2023/12/14 08:58:36;;;;;;;23.17;8.15;;;7.60;99.90;;;;;;5008313;28;20045;-72
2023/12/14 09:01:01;;;;;;;16.52;6.80;;;7.50;99.90;;;;;;5002310;28;20030;-72
2023/12/14 09:03:27;;;;;;;15.35;6.68;;;7.60;99.90;;;;;;5000999;28;20529;-72
2023/12/14 09:05:53;;;;;;;15.23;8.15;;;7.50;99.90;;;;;;4993791;28;20026;-72
2023/12/14 09:08:18;;;;;;;23.02;7.95;;;7.60;99.90;;;;;;4998997;28;20384;-72
2023/12/14 09:10:44;;;;;;;19.55;7.05;;;7.60;99.90;;;;;;4994228;28;20375;-72
2023/12/14 09:13:10;;;;;;;17.27;7.90;;;7.70;99.90;;;;;;4996965;28;20482;-72
2023/12/14 09:15:36;;;;;;;12.77;6.68;;;7.60;99.90;;;;;;4998641;28;20042;-72
2023/12/14 09:18:02;;;;;;;14.38;8.23;;;7.70;99.90;;;;;;5019683;28;20033;-72
2023/12/14 09:20:28;;;;;;;18.10;7.35;;;7.80;99.90;;;;;;4998233;28;20033;-72
2023/12/14 09:22:54;;;;;;;14.32;7.45;;;7.80;99.90;;;;;;4998940;28;20026;-72
2023/12/14 09:25:20;;;;;;;13.75;6.60;;;7.80;99.90;;;;;;5003771;28;20608;-72
2023/12/14 09:27:46;;;;;;;14.90;7.43;;;7.90;99.90;;;;;;4998932;28;20038;-72
2023/12/14 09:30:12;;;;;;;20.17;7.75;;;7.80;99.90;;;;;;5005184;28;20390;-72
2023/12/14 09:32:39;;;;;;;20.00;7.43;;;7.80;99.90;;;;;;5006227;28;20034;-72
2023/12/14 09:35:06;;;;;;;15.43;7.63;;;7.80;99.90;;;;;;4997718;28;20061;-72
2023/12/14 09:37:32;;;;;;;14.30;7.55;;;7.80;99.90;;;;;;5001693;28;20033;-73
2023/12/14 09:39:58;;;;;;;20.40;7.20;;;7.90;99.90;;;;;;5000091;28;20319;-71
2023/12/14 09:42:24;;;;;;;15.20;7.15;;;7.90;99.90;;;;;;5001848;28;20025;-71
2023/12/14 09:44:52;;;;;;;16.50;8.00;;;8.00;99.90;;;;;;4998124;28;20463;-72
2023/12/14 09:47:18;;;;;;;22.33;6.80;;;8.10;99.90;;;;;;5002417;28;20504;-72
2023/12/14 09:49:45;;;;;;;15.18;7.18;;;8.00;99.90;;;;;;4999434;28;20452;-71
2023/12/14 09:52:12;;;;;;;15.38;6.72;;;8.00;99.90;;;;;;5002875;28;20041;-71
2023/12/14 09:54:39;;;;;;;16.65;7.75;;;8.00;99.90;;;;;;4983347;28;20038;-71
2023/12/14 09:57:05;;;;;;;11.45;6.45;;;8.20;99.90;;;;;;4995131;28;20042;-72
2023/12/14 09:59:31;;;;;;;11.10;5.75;;;8.20;99.90;;;;;;5003057;28;20040;-72
2023/12/14 10:02:11;;;;;;;15.18;6.03;;;8.20;99.90;;;;;;5005711;28;20046;-72
2023/12/14 10:04:37;;;;;;;13.65;6.45;;;8.30;99.90;;;;;;5001182;28;20510;-73
2023/12/14 10:07:06;;;;;;;10.52;5.22;;;8.40;99.90;;;;;;4997119;28;20046;-73
2023/12/14 10:09:33;;;;;;;11.77;4.65;;;8.50;99.90;;;;;;4996394;28;20085;-72
2023/12/14 10:12:17;;;;;;;10.65;5.60;;;8.50;99.90;;;;;;5009213;28;20112;-74
2023/12/14 10:14:43;;;;;;;9.68;4.93;;;8.60;99.90;;;;;;5000099;28;20030;-73
2023/12/14 10:17:19;;;;;;;10.40;4.82;;;8.70;99.90;;;;;;4995751;28;20505;-74
2023/12/14 10:19:46;;;;;;;10.43;5.20;;;8.70;99.90;;;;;;4998918;28;20352;-74
2023/12/14 10:22:15;;;;;;;10.95;5.20;;;8.80;99.90;;;;;;4994748;28;20089;-74
2023/12/14 10:24:45;;;;;;;9.35;5.07;;;8.80;99.90;;;;;;4998202;28;20045;-74
2023/12/14 10:27:11;;;;;;;15.70;5.28;;;8.90;99.90;;;;;;5013299;28;20038;-73
2023/12/14 10:29:39;;;;;;;9.60;5.07;;;9.00;99.90;;;;;;5000867;28;20167;-73
2023/12/14 10:32:06;;;;;;;11.13;4.38;;;9.00;99.90;;;;;;4996650;28;20386;-73
2023/12/14 10:34:34;;;;;;;9.85;4.50;;;9.10;99.90;;;;;;4994515;28;20048;-74
2023/12/14 10:37:03;;;;;;;15.85;4.35;;;9.20;99.90;;;;;;5008097;28;20859;-73
2023/12/14 10:39:31;;;;;;;9.98;5.10;;;9.30;99.90;;;;;;4993503;28;20057;-72
2023/12/14 10:41:58;;;;;;;7.30;4.00;;;9.30;99.90;;;;;;4998558;28;20474;-73
2023/12/14 10:44:27;;;;;;;9.45;4.00;;;9.30;99.90;;;;;;5001423;28;20121;-73
2023/12/14 10:46:58;;;;;;;10.75;4.03;;;9.40;99.90;;;;;;4981067;28;20047;-71
2023/12/14 10:49:25;;;;;;;;;;;9.40;99.90;;;;;;4997705;28;20223;-72
2023/12/14 10:51:55;;;;;;;7.47;3.25;;;9.40;99.90;;;;;;5001393;28;19928;-71
2023/12/14 10:54:24;;;;;;;18.15;4.03;;;9.40;99.90;;;;;;4998106;28;20038;-72
2023/12/14 10:56:56;;;;;;;8.50;3.20;;;9.40;99.90;;;;;;4994896;28;20041;-72
2023/12/14 10:59:24;;;;;;;9.13;3.53;;;9.50;99.90;;;;;;4998453;28;20072;-71
2023/12/14 11:01:54;;;;;;;15.38;4.75;;;9.50;99.90;;;;;;4994752;28;20030;-72
2023/12/14 11:04:27;;;;;;;11.50;4.80;;;9.50;99.90;;;;;;5004237;28;20083;-72
2023/12/14 11:06:54;;;;;;;11.05;5.53;;;9.40;99.90;;;;;;5004036;28;20588;-72
2023/12/14 11:09:24;;;;;;;9.40;3.58;;;9.50;99.90;;;;;;5007621;28;20056;-73
2023/12/14 11:11:53;;;;;;;6.57;3.08;;;9.50;99.90;;;;;;5000512;28;20038;-72
2023/12/14 11:14:20;;;;;;;7.53;4.13;;;9.50;99.90;;;;;;4998631;28;20402;-73
2023/12/14 11:16:48;;;;;;;7.53;3.72;;;9.60;99.90;;;;;;5005261;28;20101;-73
2023/12/14 11:19:23;;;;;;;9.75;4.30;;;9.70;99.90;;;;;;5004457;28;20022;-72
2023/12/14 11:21:57;;;;;;;9.90;4.63;;;9.70;99.90;;;;;;5008752;28;20045;-72
2023/12/14 11:24:24;;;;;;;7.25;4.40;;;9.70;99.90;;;;;;5021905;28;20443;-73
2023/12/14 11:26:50;;;;;;;6.35;3.83;;;9.70;99.90;;;;;;5006045;28;20117;-72
2023/12/14 11:29:20;;;;;;;10.55;3.42;;;9.70;99.90;;;;;;5007668;28;20164;-72
2023/12/14 11:31:46;;;;;;;7.47;3.53;;;9.70;99.90;;;;;;5007004;28;20448;-72
2023/12/14 11:34:12;;;;;;;8.18;3.42;;;9.60;99.90;;;;;;5003347;28;20027;-72
2023/12/14 11:36:41;;;;;;;13.02;5.05;;;9.60;99.90;;;;;;5008390;28;20065;-72
2023/12/14 11:39:09;;;;;;;7.30;4.07;;;9.50;99.90;;;;;;5005085;28;20112;-72
2023/12/14 11:41:36;;;;;;;8.23;3.97;;;9.40;99.90;;;;;;4984359;28;20057;-72
2023/12/14 11:44:02;;;;;;;8.80;3.80;;;9.50;99.90;;;;;;5005399;28;20080;-72
2023/12/14 11:46:30;;;;;;;9.82;3.88;;;9.40;99.90;;;;;;5003338;28;20038;-73
2023/12/14 11:48:57;;;;;;;8.02;3.35;;;9.40;99.90;;;;;;4998644;28;20113;-73
2023/12/14 11:51:23;;;;;;;9.10;4.38;;;9.30;99.90;;;;;;5003175;28;20100;-73
2023/12/14 11:53:50;;;;;;;10.85;3.35;;;9.30;99.90;;;;;;5004425;28;20105;-72
2023/12/14 11:56:19;;;;;;;8.10;3.13;;;9.40;99.90;;;;;;4984068;28;20054;-73
2023/12/14 11:58:46;;;;;;;17.33;5.30;;;9.40;99.90;;;;;;4978018;28;20050;-72
2023/12/14 12:01:14;;;;;;;11.90;4.45;;;9.40;99.90;;;;;;4988089;28;20027;-72
2023/12/14 12:03:39;;;;;;;11.38;4.03;;;9.40;99.90;;;;;;4993428;28;20030;-72
2023/12/14 12:06:05;;;;;;;9.63;4.05;;;9.40;99.90;;;;;;4995245;28;20112;-72
2023/12/14 12:08:40;;;;;;;10.25;4.03;;;9.40;99.90;;;;;;4993029;28;20026;-72
2023/12/14 12:11:07;;;;;;;6.22;3.00;;;9.40;99.90;;;;;;4993086;28;20034;-73
2023/12/14 12:13:34;;;;;;;9.82;4.15;;;9.40;99.90;;;;;;4994827;28;20105;-72
2023/12/14 12:16:00;;;;;;;10.00;4.55;;;9.40;99.90;;;;;;4989444;28;20031;-72
2023/12/14 12:18:27;;;;;;;10.57;4.13;;;9.30;99.90;;;;;;4990965;28;20037;-69
2023/12/14 12:20:53;;;;;;;10.77;4.55;;;9.30;99.90;;;;;;4984237;28;20035;-71
2023/12/14 12:23:19;;;;;;;8.68;4.63;;;9.30;99.90;;;;;;4988935;28;20061;-72
2023/12/14 12:25:44;;;;;;;7.70;4.45;;;9.20;99.90;;;;;;4989693;28;20031;-71
2023/12/14 12:28:10;;;;;;;14.25;5.22;;;9.20;99.90;;;;;;4983671;28;20692;-71
2023/12/14 12:30:36;;;;;;;12.57;5.13;;;9.20;99.90;;;;;;4981239;28;20078;-71
2023/12/14 12:33:02;;;;;;;10.10;3.25;;;9.20;99.90;;;;;;4983673;28;20105;-71
2023/12/14 12:35:30;;;;;;;10.82;4.30;;;9.10;99.90;;;;;;4992825;28;20035;-72
2023/12/14 12:37:56;;;;;;;11.35;4.25;;;9.10;99.90;;;;;;4978703;28;20068;-71
2023/12/14 12:40:25;;;;;;;9.98;4.05;;;9.10;99.90;;;;;;4993724;28;20065;-70
2023/12/14 12:42:51;;;;;;;6.63;3.30;;;9.10;99.90;;;;;;4992310;28;20418;-71
2023/12/14 12:45:17;;;;;;;11.73;4.20;;;9.10;99.90;;;;;;4994090;28;20050;-70